sensor_id;sensor_type;location;lat;lon;timestamp;P1;durP1;ratioP1;P2;durP2;ratioP2
23384;SDS011;11865;45.394;10.978;2022-11-20T00:01:16;14.63;;;10.13;;
23384;SDS011;11865;45.394;10.978;2022-11-20T00:03:45;21.65;;;10.77;;
23384;SDS011;11865;45.394;10.978;2022-11-20T00:06:13;19.05;;;11.10;;
23384;SDS011;11865;45.394;10.978;2022-11-20T00:08:42;16.75;;;9.65;;
23384;SDS011;11865;45.394;10.978;2022-11-20T00:11:14;18.38;;;9.70;;
23384;SDS011;11865;45.394;10.978;2022-11-20T00:13:44;21.13;;;11.68;;
23384;SDS011;11865;45.394;10.978;2022-11-20T00:16:13;17.20;;;10.50;;
23384;SDS011;11865;45.394;10.978;2022-11-20T00:18:43;19.10;;;10.85;;
23384;SDS011;11865;45.394;10.978;2022-11-20T00:21:15;19.67;;;10.82;;
23384;SDS011;11865;45.394;10.978;2022-11-20T00:23:43;15.65;;;9.57;;
23384;SDS011;11865;45.394;10.978;2022-11-20T00:26:11;13.93;;;8.45;;
23384;SDS011;11865;45.394;10.978;2022-11-20T00:28:41;15.75;;;8.85;;
23384;SDS011;11865;45.394;10.978;2022-11-20T00:31:13;13.02;;;9.07;;
23384;SDS011;11865;45.394;10.978;2022-11-20T00:36:10;13.85;;;8.18;;
23384;SDS011;11865;45.394;10.978;2022-11-20T00:38:42;15.00;;;8.75;;
23384;SDS011;11865;45.394;10.978;2022-11-20T00:41:10;17.95;;;8.90;;
23384;SDS011;11865;45.394;10.978;2022-11-20T00:43:40;18.50;;;9.00;;
23384;SDS011;11865;45.394;10.978;2022-11-20T00:48:43;19.92;;;8.77;;
23384;SDS011;11865;45.394;10.978;2022-11-20T00:51:12;15.30;;;8.90;;
23384;SDS011;11865;45.394;10.978;2022-11-20T00:53:41;14.75;;;8.98;;
23384;SDS011;11865;45.394;10.978;2022-11-20T00:56:10;15.82;;;9.13;;
23384;SDS011;11865;45.394;10.978;2022-11-20T00:58:41;14.00;;;8.63;;
23384;SDS011;11865;45.394;10.978;2022-11-20T01:01:28;15.32;;;8.57;;
23384;SDS011;11865;45.394;10.978;2022-11-20T01:03:57;14.13;;;8.43;;
23384;SDS011;11865;45.394;10.978;2022-11-20T01:06:27;14.18;;;8.30;;
23384;SDS011;11865;45.394;10.978;2022-11-20T01:09:00;20.88;;;8.30;;
23384;SDS011;11865;45.394;10.978;2022-11-20T01:11:31;12.80;;;7.80;;
23384;SDS011;11865;45.394;10.978;2022-11-20T01:14:01;15.73;;;7.75;;
23384;SDS011;11865;45.394;10.978;2022-11-20T01:16:32;12.68;;;7.13;;
23384;SDS011;11865;45.394;10.978;2022-11-20T01:19:01;14.68;;;7.38;;
23384;SDS011;11865;45.394;10.978;2022-11-20T01:21:31;13.45;;;7.13;;
23384;SDS011;11865;45.394;10.978;2022-11-20T01:24:04;14.25;;;7.00;;
23384;SDS011;11865;45.394;10.978;2022-11-20T01:26:34;11.18;;;6.47;;
23384;SDS011;11865;45.394;10.978;2022-11-20T01:29:03;10.35;;;6.47;;
23384;SDS011;11865;45.394;10.978;2022-11-20T01:31:33;11.52;;;6.65;;
23384;SDS011;11865;45.394;10.978;2022-11-20T01:34:03;15.65;;;6.97;;
23384;SDS011;11865;45.394;10.978;2022-11-20T01:36:33;12.05;;;7.00;;
23384;SDS011;11865;45.394;10.978;2022-11-20T01:39:03;11.32;;;6.80;;
23384;SDS011;11865;45.394;10.978;2022-11-20T01:41:37;10.25;;;7.00;;
23384;SDS011;11865;45.394;10.978;2022-11-20T01:47:23;11.38;;;6.25;;
23384;SDS011;11865;45.394;10.978;2022-11-20T01:50:13;10.18;;;6.28;;
23384;SDS011;11865;45.394;10.978;2022-11-20T01:52:51;10.65;;;6.80;;
23384;SDS011;11865;45.394;10.978;2022-11-20T01:55:33;11.75;;;6.82;;
23384;SDS011;11865;45.394;10.978;2022-11-20T01:58:03;11.00;;;6.90;;
23384;SDS011;11865;45.394;10.978;2022-11-20T02:00:31;11.40;;;6.85;;
23384;SDS011;11865;45.394;10.978;2022-11-20T02:03:04;11.80;;;6.30;;
23384;SDS011;11865;45.394;10.978;2022-11-20T02:05:36;11.60;;;5.82;;
23384;SDS011;11865;45.394;10.978;2022-11-20T02:08:11;10.77;;;6.50;;
23384;SDS011;11865;45.394;10.978;2022-11-20T02:10:39;10.73;;;6.82;;
23384;SDS011;11865;45.394;10.978;2022-11-20T02:13:07;12.50;;;6.30;;
23384;SDS011;11865;45.394;10.978;2022-11-20T02:15:53;14.30;;;6.50;;
23384;SDS011;11865;45.394;10.978;2022-11-20T02:18:21;8.68;;;5.88;;
23384;SDS011;11865;45.394;10.978;2022-11-20T02:20:50;9.52;;;6.28;;
23384;SDS011;11865;45.394;10.978;2022-11-20T02:23:27;12.88;;;6.68;;
23384;SDS011;11865;45.394;10.978;2022-11-20T02:25:59;10.88;;;6.15;;
23384;SDS011;11865;45.394;10.978;2022-11-20T02:28:30;11.10;;;6.57;;
23384;SDS011;11865;45.394;10.978;2022-11-20T02:30:57;11.65;;;6.43;;
23384;SDS011;11865;45.394;10.978;2022-11-20T02:33:25;8.73;;;5.50;;
23384;SDS011;11865;45.394;10.978;2022-11-20T02:35:52;8.02;;;5.22;;
23384;SDS011;11865;45.394;10.978;2022-11-20T02:38:20;7.63;;;5.53;;
23384;SDS011;11865;45.394;10.978;2022-11-20T02:40:47;7.20;;;5.07;;
23384;SDS011;11865;45.394;10.978;2022-11-20T02:43:21;9.13;;;5.60;;
23384;SDS011;11865;45.394;10.978;2022-11-20T02:45:49;10.23;;;5.90;;
23384;SDS011;11865;45.394;10.978;2022-11-20T02:48:17;9.48;;;5.50;;
23384;SDS011;11865;45.394;10.978;2022-11-20T02:50:44;8.82;;;6.22;;
23384;SDS011;11865;45.394;10.978;2022-11-20T02:53:12;9.98;;;5.82;;
23384;SDS011;11865;45.394;10.978;2022-11-20T02:55:39;9.10;;;5.32;;
23384;SDS011;11865;45.394;10.978;2022-11-20T02:58:07;12.32;;;5.68;;
23384;SDS011;11865;45.394;10.978;2022-11-20T03:00:34;9.57;;;5.35;;
23384;SDS011;11865;45.394;10.978;2022-11-20T03:03:02;7.53;;;4.95;;
23384;SDS011;11865;45.394;10.978;2022-11-20T03:05:29;8.35;;;5.03;;
23384;SDS011;11865;45.394;10.978;2022-11-20T03:07:57;9.13;;;5.72;;
23384;SDS011;11865;45.394;10.978;2022-11-20T03:10:24;8.55;;;5.22;;
23384;SDS011;11865;45.394;10.978;2022-11-20T03:12:54;7.45;;;4.43;;
23384;SDS011;11865;45.394;10.978;2022-11-20T03:15:23;9.48;;;5.32;;
23384;SDS011;11865;45.394;10.978;2022-11-20T03:17:53;10.13;;;5.53;;
23384;SDS011;11865;45.394;10.978;2022-11-20T03:20:22;10.68;;;6.03;;
23384;SDS011;11865;45.394;10.978;2022-11-20T03:22:49;8.85;;;5.68;;
23384;SDS011;11865;45.394;10.978;2022-11-20T03:25:17;11.27;;;5.50;;
23384;SDS011;11865;45.394;10.978;2022-11-20T03:27:44;10.13;;;5.85;;
23384;SDS011;11865;45.394;10.978;2022-11-20T03:30:12;8.80;;;5.22;;
23384;SDS011;11865;45.394;10.978;2022-11-20T03:32:40;11.63;;;7.05;;
23384;SDS011;11865;45.394;10.978;2022-11-20T03:35:08;12.82;;;6.35;;
23384;SDS011;11865;45.394;10.978;2022-11-20T03:37:36;8.18;;;4.63;;
23384;SDS011;11865;45.394;10.978;2022-11-20T03:40:03;10.63;;;5.30;;
23384;SDS011;11865;45.394;10.978;2022-11-20T03:42:31;11.35;;;5.50;;
23384;SDS011;11865;45.394;10.978;2022-11-20T03:45:15;7.22;;;4.97;;
23384;SDS011;11865;45.394;10.978;2022-11-20T03:47:44;10.23;;;5.82;;
23384;SDS011;11865;45.394;10.978;2022-11-20T03:50:12;10.45;;;5.13;;
23384;SDS011;11865;45.394;10.978;2022-11-20T03:52:40;8.45;;;4.97;;
23384;SDS011;11865;45.394;10.978;2022-11-20T03:55:08;7.70;;;4.93;;
23384;SDS011;11865;45.394;10.978;2022-11-20T03:57:36;8.95;;;5.47;;
23384;SDS011;11865;45.394;10.978;2022-11-20T04:00:04;11.25;;;5.57;;
23384;SDS011;11865;45.394;10.978;2022-11-20T04:02:32;8.98;;;5.18;;
23384;SDS011;11865;45.394;10.978;2022-11-20T04:04:59;8.73;;;5.50;;
23384;SDS011;11865;45.394;10.978;2022-11-20T04:07:26;15.25;;;5.95;;
23384;SDS011;11865;45.394;10.978;2022-11-20T04:09:54;10.77;;;5.47;;
23384;SDS011;11865;45.394;10.978;2022-11-20T04:12:21;7.32;;;5.00;;
23384;SDS011;11865;45.394;10.978;2022-11-20T04:14:49;9.82;;;5.60;;
23384;SDS011;11865;45.394;10.978;2022-11-20T04:17:16;7.80;;;5.38;;
23384;SDS011;11865;45.394;10.978;2022-11-20T04:19:44;9.40;;;5.72;;
23384;SDS011;11865;45.394;10.978;2022-11-20T04:22:11;9.80;;;5.32;;
23384;SDS011;11865;45.394;10.978;2022-11-20T04:24:38;8.82;;;4.80;;
23384;SDS011;11865;45.394;10.978;2022-11-20T04:27:06;8.13;;;5.10;;
23384;SDS011;11865;45.394;10.978;2022-11-20T04:29:36;11.77;;;6.05;;
23384;SDS011;11865;45.394;10.978;2022-11-20T04:32:03;10.10;;;5.07;;
23384;SDS011;11865;45.394;10.978;2022-11-20T04:34:31;9.48;;;4.90;;
23384;SDS011;11865;45.394;10.978;2022-11-20T04:36:58;10.20;;;5.55;;
23384;SDS011;11865;45.394;10.978;2022-11-20T04:39:27;10.05;;;5.68;;
23384;SDS011;11865;45.394;10.978;2022-11-20T04:41:54;7.57;;;4.75;;
23384;SDS011;11865;45.394;10.978;2022-11-20T04:44:40;7.68;;;5.00;;
23384;SDS011;11865;45.394;10.978;2022-11-20T04:47:07;7.88;;;5.15;;
23384;SDS011;11865;45.394;10.978;2022-11-20T04:49:35;11.38;;;5.78;;
23384;SDS011;11865;45.394;10.978;2022-11-20T04:52:02;9.90;;;5.90;;
23384;SDS011;11865;45.394;10.978;2022-11-20T04:54:30;10.02;;;6.00;;
23384;SDS011;11865;45.394;10.978;2022-11-20T04:56:57;8.77;;;5.70;;
23384;SDS011;11865;45.394;10.978;2022-11-20T04:59:25;10.10;;;5.95;;
23384;SDS011;11865;45.394;10.978;2022-11-20T05:01:52;8.68;;;5.82;;
23384;SDS011;11865;45.394;10.978;2022-11-20T05:04:20;9.23;;;5.40;;
23384;SDS011;11865;45.394;10.978;2022-11-20T05:06:47;8.63;;;5.38;;
23384;SDS011;11865;45.394;10.978;2022-11-20T05:09:16;8.90;;;4.90;;
23384;SDS011;11865;45.394;10.978;2022-11-20T05:11:43;7.72;;;4.80;;
23384;SDS011;11865;45.394;10.978;2022-11-20T05:14:17;8.90;;;5.18;;
23384;SDS011;11865;45.394;10.978;2022-11-20T05:16:44;9.02;;;5.50;;
23384;SDS011;11865;45.394;10.978;2022-11-20T05:19:12;10.27;;;6.05;;
23384;SDS011;11865;45.394;10.978;2022-11-20T05:21:39;6.90;;;5.10;;
23384;SDS011;11865;45.394;10.978;2022-11-20T05:24:06;9.18;;;5.03;;
23384;SDS011;11865;45.394;10.978;2022-11-20T05:26:34;7.65;;;5.00;;
23384;SDS011;11865;45.394;10.978;2022-11-20T05:29:01;10.38;;;5.47;;
23384;SDS011;11865;45.394;10.978;2022-11-20T05:31:29;7.65;;;5.38;;
23384;SDS011;11865;45.394;10.978;2022-11-20T05:33:56;6.32;;;4.90;;
23384;SDS011;11865;45.394;10.978;2022-11-20T05:36:24;10.20;;;4.80;;
23384;SDS011;11865;45.394;10.978;2022-11-20T05:38:52;10.77;;;4.97;;
23384;SDS011;11865;45.394;10.978;2022-11-20T05:41:27;8.18;;;5.40;;
23384;SDS011;11865;45.394;10.978;2022-11-20T05:43:55;8.57;;;5.28;;
23384;SDS011;11865;45.394;10.978;2022-11-20T05:46:24;10.52;;;5.43;;
23384;SDS011;11865;45.394;10.978;2022-11-20T05:48:55;7.60;;;4.97;;
23384;SDS011;11865;45.394;10.978;2022-11-20T05:51:24;7.30;;;4.70;;
23384;SDS011;11865;45.394;10.978;2022-11-20T05:53:52;9.57;;;4.10;;
23384;SDS011;11865;45.394;10.978;2022-11-20T05:56:20;9.00;;;5.22;;
23384;SDS011;11865;45.394;10.978;2022-11-20T05:58:48;7.72;;;4.45;;
23384;SDS011;11865;45.394;10.978;2022-11-20T06:01:20;8.35;;;4.80;;
23384;SDS011;11865;45.394;10.978;2022-11-20T06:03:49;7.80;;;5.15;;
23384;SDS011;11865;45.394;10.978;2022-11-20T06:06:18;8.10;;;5.03;;
23384;SDS011;11865;45.394;10.978;2022-11-20T06:08:46;9.45;;;5.32;;
23384;SDS011;11865;45.394;10.978;2022-11-20T06:11:14;7.68;;;4.75;;
23384;SDS011;11865;45.394;10.978;2022-11-20T06:13:43;8.07;;;5.28;;
23384;SDS011;11865;45.394;10.978;2022-11-20T06:16:13;8.95;;;4.90;;
23384;SDS011;11865;45.394;10.978;2022-11-20T06:18:42;6.10;;;4.45;;
23384;SDS011;11865;45.394;10.978;2022-11-20T06:21:11;8.50;;;4.65;;
23384;SDS011;11865;45.394;10.978;2022-11-20T06:23:39;10.02;;;5.10;;
23384;SDS011;11865;45.394;10.978;2022-11-20T06:26:07;8.20;;;5.20;;
23384;SDS011;11865;45.394;10.978;2022-11-20T06:28:39;8.05;;;4.75;;
23384;SDS011;11865;45.394;10.978;2022-11-20T06:31:07;8.27;;;5.55;;
23384;SDS011;11865;45.394;10.978;2022-11-20T06:33:37;9.30;;;4.60;;
23384;SDS011;11865;45.394;10.978;2022-11-20T06:36:05;6.57;;;4.70;;
23384;SDS011;11865;45.394;10.978;2022-11-20T06:38:37;9.10;;;5.28;;
23384;SDS011;11865;45.394;10.978;2022-11-20T06:41:05;9.30;;;5.10;;
23384;SDS011;11865;45.394;10.978;2022-11-20T06:43:34;10.15;;;4.90;;
23384;SDS011;11865;45.394;10.978;2022-11-20T06:46:02;9.45;;;5.10;;
23384;SDS011;11865;45.394;10.978;2022-11-20T06:48:29;15.07;;;5.45;;
23384;SDS011;11865;45.394;10.978;2022-11-20T06:50:57;7.53;;;4.97;;
23384;SDS011;11865;45.394;10.978;2022-11-20T06:53:25;10.45;;;5.32;;
23384;SDS011;11865;45.394;10.978;2022-11-20T06:55:55;7.93;;;5.22;;
23384;SDS011;11865;45.394;10.978;2022-11-20T06:58:26;13.80;;;6.55;;
23384;SDS011;11865;45.394;10.978;2022-11-20T07:00:58;9.88;;;5.40;;
23384;SDS011;11865;45.394;10.978;2022-11-20T07:03:26;12.10;;;5.90;;
23384;SDS011;11865;45.394;10.978;2022-11-20T07:05:55;9.50;;;5.85;;
23384;SDS011;11865;45.394;10.978;2022-11-20T07:08:23;10.40;;;5.28;;
23384;SDS011;11865;45.394;10.978;2022-11-20T07:10:51;9.88;;;6.20;;
23384;SDS011;11865;45.394;10.978;2022-11-20T07:13:18;10.57;;;6.03;;
23384;SDS011;11865;45.394;10.978;2022-11-20T07:15:46;9.65;;;5.65;;
23384;SDS011;11865;45.394;10.978;2022-11-20T07:18:13;7.90;;;5.35;;
23384;SDS011;11865;45.394;10.978;2022-11-20T07:20:41;9.15;;;5.55;;
23384;SDS011;11865;45.394;10.978;2022-11-20T07:23:08;7.32;;;4.70;;
23384;SDS011;11865;45.394;10.978;2022-11-20T07:25:35;11.52;;;5.88;;
23384;SDS011;11865;45.394;10.978;2022-11-20T07:28:03;11.82;;;5.53;;
23384;SDS011;11865;45.394;10.978;2022-11-20T07:30:30;8.55;;;5.68;;
23384;SDS011;11865;45.394;10.978;2022-11-20T07:32:58;12.18;;;5.30;;
23384;SDS011;11865;45.394;10.978;2022-11-20T07:35:26;7.65;;;5.00;;
23384;SDS011;11865;45.394;10.978;2022-11-20T07:37:53;9.70;;;4.72;;
23384;SDS011;11865;45.394;10.978;2022-11-20T07:40:20;9.27;;;5.03;;
23384;SDS011;11865;45.394;10.978;2022-11-20T07:42:51;6.40;;;4.40;;
23384;SDS011;11865;45.394;10.978;2022-11-20T07:45:20;7.78;;;4.93;;
23384;SDS011;11865;45.394;10.978;2022-11-20T07:47:49;9.65;;;6.05;;
23384;SDS011;11865;45.394;10.978;2022-11-20T07:50:17;8.48;;;4.10;;
23384;SDS011;11865;45.394;10.978;2022-11-20T07:52:45;8.52;;;4.22;;
23384;SDS011;11865;45.394;10.978;2022-11-20T07:55:13;6.45;;;4.05;;
23384;SDS011;11865;45.394;10.978;2022-11-20T07:57:41;6.93;;;4.28;;
23384;SDS011;11865;45.394;10.978;2022-11-20T08:00:09;6.93;;;3.90;;
23384;SDS011;11865;45.394;10.978;2022-11-20T08:02:38;6.80;;;4.38;;
23384;SDS011;11865;45.394;10.978;2022-11-20T08:05:07;8.25;;;4.00;;
23384;SDS011;11865;45.394;10.978;2022-11-20T08:07:36;6.22;;;3.50;;
23384;SDS011;11865;45.394;10.978;2022-11-20T08:10:08;5.55;;;3.95;;
23384;SDS011;11865;45.394;10.978;2022-11-20T08:12:43;4.72;;;3.53;;
23384;SDS011;11865;45.394;10.978;2022-11-20T08:15:33;6.55;;;4.00;;
23384;SDS011;11865;45.394;10.978;2022-11-20T08:18:02;6.70;;;3.75;;
23384;SDS011;11865;45.394;10.978;2022-11-20T08:20:58;5.88;;;4.10;;
23384;SDS011;11865;45.394;10.978;2022-11-20T08:23:29;8.90;;;4.00;;
23384;SDS011;11865;45.394;10.978;2022-11-20T08:25:56;5.60;;;3.55;;
23384;SDS011;11865;45.394;10.978;2022-11-20T08:28:24;5.63;;;3.63;;
23384;SDS011;11865;45.394;10.978;2022-11-20T08:30:51;6.53;;;3.80;;
23384;SDS011;11865;45.394;10.978;2022-11-20T08:33:25;7.40;;;3.90;;
23384;SDS011;11865;45.394;10.978;2022-11-20T08:35:53;4.72;;;3.17;;
23384;SDS011;11865;45.394;10.978;2022-11-20T08:38:29;5.10;;;3.25;;
23384;SDS011;11865;45.394;10.978;2022-11-20T08:40:58;5.07;;;3.40;;
23384;SDS011;11865;45.394;10.978;2022-11-20T08:43:44;5.40;;;3.40;;
23384;SDS011;11865;45.394;10.978;2022-11-20T08:46:12;4.75;;;3.58;;
23384;SDS011;11865;45.394;10.978;2022-11-20T08:48:39;5.13;;;3.13;;
23384;SDS011;11865;45.394;10.978;2022-11-20T08:51:07;4.70;;;2.85;;
23384;SDS011;11865;45.394;10.978;2022-11-20T08:53:35;5.43;;;3.15;;
23384;SDS011;11865;45.394;10.978;2022-11-20T08:56:02;5.70;;;2.80;;
23384;SDS011;11865;45.394;10.978;2022-11-20T08:58:30;5.07;;;3.25;;
23384;SDS011;11865;45.394;10.978;2022-11-20T09:01:18;5.18;;;2.95;;
23384;SDS011;11865;45.394;10.978;2022-11-20T09:03:46;5.45;;;3.15;;
23384;SDS011;11865;45.394;10.978;2022-11-20T09:06:14;4.75;;;3.22;;
23384;SDS011;11865;45.394;10.978;2022-11-20T09:08:41;7.82;;;3.42;;
23384;SDS011;11865;45.394;10.978;2022-11-20T09:11:09;4.20;;;2.90;;
23384;SDS011;11865;45.394;10.978;2022-11-20T09:13:37;4.50;;;2.97;;
23384;SDS011;11865;45.394;10.978;2022-11-20T09:16:05;4.93;;;3.20;;
23384;SDS011;11865;45.394;10.978;2022-11-20T09:18:35;5.80;;;3.00;;
23384;SDS011;11865;45.394;10.978;2022-11-20T09:21:05;7.43;;;3.55;;
23384;SDS011;11865;45.394;10.978;2022-11-20T09:23:34;7.20;;;4.95;;
23384;SDS011;11865;45.394;10.978;2022-11-20T09:26:06;7.47;;;4.72;;
23384;SDS011;11865;45.394;10.978;2022-11-20T09:28:39;7.85;;;4.32;;
23384;SDS011;11865;45.394;10.978;2022-11-20T09:31:07;8.60;;;4.18;;
23384;SDS011;11865;45.394;10.978;2022-11-20T09:33:36;6.55;;;4.22;;
23384;SDS011;11865;45.394;10.978;2022-11-20T09:36:04;6.82;;;4.63;;
23384;SDS011;11865;45.394;10.978;2022-11-20T09:38:32;10.05;;;5.05;;
23384;SDS011;11865;45.394;10.978;2022-11-20T09:46:14;6.88;;;4.47;;
23384;SDS011;11865;45.394;10.978;2022-11-20T09:49:01;5.72;;;3.50;;
23384;SDS011;11865;45.394;10.978;2022-11-20T09:51:51;7.45;;;3.60;;
23384;SDS011;11865;45.394;10.978;2022-11-20T09:54:35;5.43;;;3.20;;
23384;SDS011;11865;45.394;10.978;2022-11-20T09:57:17;5.35;;;3.28;;
23384;SDS011;11865;45.394;10.978;2022-11-20T10:04:59;3.75;;;2.42;;
23384;SDS011;11865;45.394;10.978;2022-11-20T10:10:39;5.30;;;2.75;;
23384;SDS011;11865;45.394;10.978;2022-11-20T10:27:00;7.50;;;3.50;;
23384;SDS011;11865;45.394;10.978;2022-11-20T10:29:47;4.78;;;3.08;;
23384;SDS011;11865;45.394;10.978;2022-11-20T10:38:25;6.10;;;3.33;;
23384;SDS011;11865;45.394;10.978;2022-11-20T10:41:04;6.22;;;3.08;;
23384;SDS011;11865;45.394;10.978;2022-11-20T10:44:02;10.77;;;6.40;;
23384;SDS011;11865;45.394;10.978;2022-11-20T10:46:34;8.18;;;5.97;;
23384;SDS011;11865;45.394;10.978;2022-11-20T10:49:25;8.65;;;5.13;;
23384;SDS011;11865;45.394;10.978;2022-11-20T10:57:14;10.30;;;4.00;;
23384;SDS011;11865;45.394;10.978;2022-11-20T11:00:05;8.60;;;5.22;;
23384;SDS011;11865;45.394;10.978;2022-11-20T11:03:18;7.63;;;4.15;;
23384;SDS011;11865;45.394;10.978;2022-11-20T11:08:18;9.27;;;4.05;;
23384;SDS011;11865;45.394;10.978;2022-11-20T11:10:53;6.72;;;4.70;;
23384;SDS011;11865;45.394;10.978;2022-11-20T11:13:25;7.28;;;4.25;;
23384;SDS011;11865;45.394;10.978;2022-11-20T11:15:56;8.18;;;5.03;;
23384;SDS011;11865;45.394;10.978;2022-11-20T11:18:25;10.98;;;5.15;;
23384;SDS011;11865;45.394;10.978;2022-11-20T11:21:00;8.43;;;5.38;;
23384;SDS011;11865;45.394;10.978;2022-11-20T11:26:06;9.27;;;5.20;;
23384;SDS011;11865;45.394;10.978;2022-11-20T11:28:57;12.57;;;6.20;;
23384;SDS011;11865;45.394;10.978;2022-11-20T11:31:27;9.38;;;5.57;;
23384;SDS011;11865;45.394;10.978;2022-11-20T11:34:06;9.27;;;5.85;;
23384;SDS011;11865;45.394;10.978;2022-11-20T11:36:41;9.93;;;5.97;;
23384;SDS011;11865;45.394;10.978;2022-11-20T11:39:16;12.73;;;7.03;;
23384;SDS011;11865;45.394;10.978;2022-11-20T11:41:47;11.75;;;7.15;;
23384;SDS011;11865;45.394;10.978;2022-11-20T11:44:19;13.98;;;7.70;;
23384;SDS011;11865;45.394;10.978;2022-11-20T11:55:50;16.80;;;10.68;;
23384;SDS011;11865;45.394;10.978;2022-11-20T12:10:20;22.17;;;12.48;;
23384;SDS011;11865;45.394;10.978;2022-11-20T12:12:50;26.38;;;14.30;;
23384;SDS011;11865;45.394;10.978;2022-11-20T12:15:25;24.33;;;14.25;;
23384;SDS011;11865;45.394;10.978;2022-11-20T12:17:56;24.13;;;13.35;;
23384;SDS011;11865;45.394;10.978;2022-11-20T12:20:26;28.27;;;16.00;;
23384;SDS011;11865;45.394;10.978;2022-11-20T12:23:05;29.65;;;15.02;;
23384;SDS011;11865;45.394;10.978;2022-11-20T12:25:40;27.08;;;14.93;;
23384;SDS011;11865;45.394;10.978;2022-11-20T12:31:21;27.17;;;15.23;;
23384;SDS011;11865;45.394;10.978;2022-11-20T12:34:04;25.27;;;14.73;;
23384;SDS011;11865;45.394;10.978;2022-11-20T12:39:42;26.38;;;13.80;;
23384;SDS011;11865;45.394;10.978;2022-11-20T12:45:37;24.25;;;14.02;;
23384;SDS011;11865;45.394;10.978;2022-11-20T12:51:06;24.08;;;13.88;;
23384;SDS011;11865;45.394;10.978;2022-11-20T12:54:06;25.23;;;14.52;;
23384;SDS011;11865;45.394;10.978;2022-11-20T13:02:30;22.23;;;11.93;;
23384;SDS011;11865;45.394;10.978;2022-11-20T13:08:15;30.00;;;15.93;;
23384;SDS011;11865;45.394;10.978;2022-11-20T13:19:03;27.13;;;15.60;;
23384;SDS011;11865;45.394;10.978;2022-11-20T13:21:38;31.38;;;15.57;;
23384;SDS011;11865;45.394;10.978;2022-11-20T13:27:17;27.50;;;15.57;;
23384;SDS011;11865;45.394;10.978;2022-11-20T13:29:58;33.13;;;15.38;;
23384;SDS011;11865;45.394;10.978;2022-11-20T13:32:28;26.15;;;15.15;;
23384;SDS011;11865;45.394;10.978;2022-11-20T13:35:00;29.60;;;16.55;;
23384;SDS011;11865;45.394;10.978;2022-11-20T13:37:34;30.45;;;16.98;;
23384;SDS011;11865;45.394;10.978;2022-11-20T13:42:54;33.53;;;16.85;;
23384;SDS011;11865;45.394;10.978;2022-11-20T13:45:54;27.70;;;15.95;;
23384;SDS011;11865;45.394;10.978;2022-11-20T13:48:23;26.35;;;16.20;;
23384;SDS011;11865;45.394;10.978;2022-11-20T13:59:28;30.33;;;16.17;;
23384;SDS011;11865;45.394;10.978;2022-11-20T14:02:00;28.00;;;15.82;;
23384;SDS011;11865;45.394;10.978;2022-11-20T14:04:35;27.08;;;16.00;;
23384;SDS011;11865;45.394;10.978;2022-11-20T14:07:05;25.67;;;15.82;;
23384;SDS011;11865;45.394;10.978;2022-11-20T14:09:33;25.80;;;15.65;;
23384;SDS011;11865;45.394;10.978;2022-11-20T14:12:01;29.70;;;16.10;;
23384;SDS011;11865;45.394;10.978;2022-11-20T14:14:31;25.58;;;16.33;;
23384;SDS011;11865;45.394;10.978;2022-11-20T14:17:17;26.20;;;16.05;;
23384;SDS011;11865;45.394;10.978;2022-11-20T14:19:49;26.58;;;16.30;;
23384;SDS011;11865;45.394;10.978;2022-11-20T14:22:27;25.95;;;15.88;;
23384;SDS011;11865;45.394;10.978;2022-11-20T14:27:44;26.80;;;16.90;;
23384;SDS011;11865;45.394;10.978;2022-11-20T14:30:21;28.65;;;16.10;;
23384;SDS011;11865;45.394;10.978;2022-11-20T14:32:50;26.65;;;16.23;;
23384;SDS011;11865;45.394;10.978;2022-11-20T14:35:29;25.52;;;15.88;;
23384;SDS011;11865;45.394;10.978;2022-11-20T14:38:01;27.40;;;16.25;;
23384;SDS011;11865;45.394;10.978;2022-11-20T14:40:30;28.40;;;16.92;;
23384;SDS011;11865;45.394;10.978;2022-11-20T14:45:31;31.27;;;17.27;;
23384;SDS011;11865;45.394;10.978;2022-11-20T14:48:01;28.95;;;17.83;;
23384;SDS011;11865;45.394;10.978;2022-11-20T14:50:30;31.35;;;18.17;;
23384;SDS011;11865;45.394;10.978;2022-11-20T14:52:59;29.83;;;18.20;;
23384;SDS011;11865;45.394;10.978;2022-11-20T14:55:37;28.40;;;17.45;;
23384;SDS011;11865;45.394;10.978;2022-11-20T14:58:27;28.33;;;16.92;;
23384;SDS011;11865;45.394;10.978;2022-11-20T15:00:59;25.05;;;16.52;;
23384;SDS011;11865;45.394;10.978;2022-11-20T15:03:39;28.20;;;16.23;;
23384;SDS011;11865;45.394;10.978;2022-11-20T15:06:10;26.83;;;16.83;;
23384;SDS011;11865;45.394;10.978;2022-11-20T15:08:38;29.40;;;16.95;;
23384;SDS011;11865;45.394;10.978;2022-11-20T15:11:18;29.60;;;17.45;;
23384;SDS011;11865;45.394;10.978;2022-11-20T15:16:18;28.88;;;17.10;;
23384;SDS011;11865;45.394;10.978;2022-11-20T15:18:47;32.05;;;18.33;;
23384;SDS011;11865;45.394;10.978;2022-11-20T15:21:16;30.00;;;17.77;;
23384;SDS011;11865;45.394;10.978;2022-11-20T15:23:45;29.95;;;18.38;;
23384;SDS011;11865;45.394;10.978;2022-11-20T15:26:13;34.80;;;18.73;;
23384;SDS011;11865;45.394;10.978;2022-11-20T15:28:48;32.15;;;17.65;;
23384;SDS011;11865;45.394;10.978;2022-11-20T15:31:18;30.33;;;18.33;;
23384;SDS011;11865;45.394;10.978;2022-11-20T15:33:47;30.25;;;18.75;;
23384;SDS011;11865;45.394;10.978;2022-11-20T15:36:15;30.67;;;18.42;;
23384;SDS011;11865;45.394;10.978;2022-11-20T15:38:43;33.45;;;17.88;;
23384;SDS011;11865;45.394;10.978;2022-11-20T15:41:11;30.92;;;18.40;;
23384;SDS011;11865;45.394;10.978;2022-11-20T15:43:38;29.63;;;18.08;;
23384;SDS011;11865;45.394;10.978;2022-11-20T15:46:15;36.90;;;20.15;;
23384;SDS011;11865;45.394;10.978;2022-11-20T15:48:51;33.00;;;18.98;;
23384;SDS011;11865;45.394;10.978;2022-11-20T15:53:51;33.30;;;18.92;;
23384;SDS011;11865;45.394;10.978;2022-11-20T15:56:19;39.40;;;21.02;;
23384;SDS011;11865;45.394;10.978;2022-11-20T15:58:46;37.15;;;20.20;;
23384;SDS011;11865;45.394;10.978;2022-11-20T16:01:15;35.40;;;19.08;;
23384;SDS011;11865;45.394;10.978;2022-11-20T16:03:44;31.67;;;19.48;;
23384;SDS011;11865;45.394;10.978;2022-11-20T16:06:11;32.85;;;20.30;;
23384;SDS011;11865;45.394;10.978;2022-11-20T16:08:39;32.97;;;18.45;;
23384;SDS011;11865;45.394;10.978;2022-11-20T16:11:06;33.90;;;19.48;;
23384;SDS011;11865;45.394;10.978;2022-11-20T16:13:37;35.08;;;19.25;;
23384;SDS011;11865;45.394;10.978;2022-11-20T16:16:24;33.95;;;18.67;;
23384;SDS011;11865;45.394;10.978;2022-11-20T16:18:55;35.33;;;20.88;;
23384;SDS011;11865;45.394;10.978;2022-11-20T16:21:23;35.92;;;20.20;;
23384;SDS011;11865;45.394;10.978;2022-11-20T16:24:00;37.08;;;21.20;;
23384;SDS011;11865;45.394;10.978;2022-11-20T16:26:30;35.38;;;20.80;;
23384;SDS011;11865;45.394;10.978;2022-11-20T16:28:58;38.88;;;22.60;;
23384;SDS011;11865;45.394;10.978;2022-11-20T16:31:26;38.25;;;22.90;;
23384;SDS011;11865;45.394;10.978;2022-11-20T16:33:55;35.70;;;20.98;;
23384;SDS011;11865;45.394;10.978;2022-11-20T16:36:23;38.22;;;21.58;;
23384;SDS011;11865;45.394;10.978;2022-11-20T16:38:52;37.92;;;20.52;;
23384;SDS011;11865;45.394;10.978;2022-11-20T16:41:25;34.80;;;20.73;;
23384;SDS011;11865;45.394;10.978;2022-11-20T16:43:54;48.65;;;24.42;;
23384;SDS011;11865;45.394;10.978;2022-11-20T16:46:25;38.45;;;22.98;;
23384;SDS011;11865;45.394;10.978;2022-11-20T16:48:54;35.15;;;21.52;;
23384;SDS011;11865;45.394;10.978;2022-11-20T16:51:31;40.28;;;23.55;;
23384;SDS011;11865;45.394;10.978;2022-11-20T16:54:01;37.33;;;22.67;;